createdAt,value
2023-04-11T00:00:37.611Z,91.82
2023-04-11T00:03:14.762Z,79.63
2023-04-11T00:05:43.680Z,65.60
2023-04-11T00:08:12.865Z,64.20
2023-04-11T00:10:42.415Z,53.50
2023-04-11T00:13:12.090Z,41.70
2023-04-11T00:15:40.620Z,39.10
2023-04-11T00:18:09.703Z,38.13
2023-04-11T00:20:38.086Z,37.10
2023-04-11T00:23:06.694Z,36.15
2023-04-11T00:25:36.799Z,33.42
2023-04-11T00:28:05.552Z,32.47
2023-04-11T00:30:33.855Z,32.97
2023-04-11T00:33:02.608Z,36.35
2023-04-11T00:35:34.719Z,37.75
2023-04-11T00:38:04.143Z,40.50
2023-04-11T00:40:32.743Z,34.63
2023-04-11T00:43:01.974Z,36.47
2023-04-11T00:45:30.947Z,36.22
2023-04-11T00:48:00.935Z,42.22
2023-04-11T00:50:29.759Z,43.65
2023-04-11T00:52:58.742Z,44.22
2023-04-11T00:55:27.951Z,39.75
2023-04-11T00:57:56.736Z,40.70
2023-04-11T01:00:28.104Z,46.72
2023-04-11T01:02:58.928Z,50.20
2023-04-11T01:05:28.251Z,42.90
2023-04-11T01:07:57.827Z,41.30
2023-04-11T01:10:30.746Z,36.00
2023-04-11T01:13:01.052Z,38.30
2023-04-11T01:15:29.646Z,34.78
2023-04-11T01:18:02.332Z,41.22
2023-04-11T01:20:31.949Z,37.50
2023-04-11T01:23:03.239Z,41.90
2023-04-11T01:25:31.730Z,41.28
2023-04-11T01:28:00.751Z,41.15
2023-04-11T01:30:29.191Z,43.42
2023-04-11T01:32:58.168Z,40.08
2023-04-11T01:35:26.641Z,36.42
2023-04-11T01:37:55.677Z,41.03
2023-04-11T01:40:24.358Z,44.58
2023-04-11T01:42:55.158Z,39.65
2023-04-11T01:45:24.100Z,40.30
2023-04-11T01:47:54.703Z,41.88
2023-04-11T01:50:24.189Z,38.90
2023-04-11T01:52:55.072Z,41.35
2023-04-11T01:55:23.407Z,42.17
2023-04-11T01:57:52.015Z,43.88
2023-04-11T02:00:20.766Z,37.05
2023-04-11T02:02:49.546Z,45.35
2023-04-11T02:05:17.986Z,45.90
2023-04-11T02:07:46.945Z,51.03
2023-04-11T02:10:19.439Z,43.78
2023-04-11T02:12:47.952Z,36.90
2023-04-11T02:15:16.252Z,37.30
2023-04-11T02:17:45.718Z,38.65
2023-04-11T02:20:14.814Z,39.95
2023-04-11T02:22:43.999Z,36.05
2023-04-11T02:25:12.218Z,36.67
2023-04-11T02:27:41.468Z,36.33
2023-04-11T02:30:10.095Z,37.95
2023-04-11T02:32:38.922Z,43.70
2023-04-11T02:35:08.990Z,34.92
2023-04-11T02:37:37.711Z,33.58
2023-04-11T02:40:07.285Z,38.00
2023-04-11T02:42:37.110Z,37.80
2023-04-11T02:45:05.897Z,42.55
2023-04-11T02:47:37.917Z,40.25
2023-04-11T02:50:08.962Z,46.22
2023-04-11T02:52:47.657Z,51.10
2023-04-11T02:55:19.435Z,59.35
2023-04-11T02:57:48.225Z,52.50
2023-04-11T03:00:21.792Z,54.80
2023-04-11T03:02:57.108Z,61.03
2023-04-11T03:05:26.825Z,53.95
2023-04-11T03:07:57.930Z,62.67
2023-04-11T03:10:28.847Z,55.50
2023-04-11T03:12:58.338Z,54.92
2023-04-11T03:15:28.089Z,62.92
2023-04-11T03:17:56.948Z,57.50
2023-04-11T03:20:25.603Z,49.10
2023-04-11T03:22:55.422Z,47.75
2023-04-11T03:25:25.391Z,50.33
2023-04-11T03:27:54.904Z,49.45
2023-04-11T03:30:23.175Z,47.33
2023-04-11T03:32:53.376Z,49.95
2023-04-11T03:35:21.779Z,50.25
2023-04-11T03:37:52.360Z,52.10
2023-04-11T03:40:20.637Z,60.45
2023-04-11T03:42:59.865Z,56.63
2023-04-11T03:45:31.412Z,55.97
2023-04-11T03:48:03.711Z,56.35
2023-04-11T03:50:46.472Z,59.50
2023-04-11T03:53:17.159Z,67.45
2023-04-11T03:55:49.503Z,62.75
2023-04-11T03:58:21.731Z,56.85
2023-04-11T04:00:50.197Z,56.22
2023-04-11T04:03:20.477Z,71.85
2023-04-11T04:05:49.084Z,67.05
2023-04-11T04:08:17.653Z,68.93
2023-04-11T04:10:48.910Z,63.33
2023-04-11T04:13:20.226Z,64.15
2023-04-11T04:15:54.935Z,59.60
2023-04-11T04:18:27.238Z,65.63
2023-04-11T04:20:55.715Z,68.07
2023-04-11T04:23:27.337Z,107.53
2023-04-11T04:26:13.316Z,107.18
2023-04-11T04:28:46.168Z,101.35
2023-04-11T04:31:25.798Z,185.25
2023-04-11T04:34:08.944Z,183.10
2023-04-11T04:37:05.092Z,157.15
2023-04-11T04:39:42.364Z,84.05
2023-04-11T04:42:14.971Z,81.25
2023-04-11T04:44:44.018Z,77.55
2023-04-11T04:47:18.424Z,60.30
2023-04-11T04:49:48.025Z,64.82
2023-04-11T04:52:18.042Z,73.28
2023-04-11T04:54:46.954Z,127.05
2023-04-11T04:57:15.618Z,161.00
2023-04-11T04:59:45.725Z,87.45
2023-04-11T05:02:17.457Z,82.88
2023-04-11T05:04:48.335Z,81.93
2023-04-11T05:07:18.372Z,75.40
2023-04-11T05:09:51.581Z,70.95
2023-04-11T05:12:27.614Z,67.97
2023-04-11T05:15:01.386Z,65.43
2023-04-11T05:17:32.016Z,62.38
2023-04-11T05:20:00.915Z,64.57
2023-04-11T05:22:29.675Z,61.67
2023-04-11T05:24:58.781Z,62.50
2023-04-11T05:27:28.077Z,84.00
2023-04-11T05:29:56.759Z,80.30
2023-04-11T05:32:25.575Z,77.40
2023-04-11T05:34:59.060Z,73.15
2023-04-11T05:38:06.072Z,68.03
2023-04-11T05:40:35.682Z,71.65
2023-04-11T05:43:03.886Z,67.88
2023-04-11T05:45:32.971Z,69.95
2023-04-11T05:48:01.184Z,58.85
2023-04-11T05:50:30.015Z,58.53
2023-04-11T05:52:58.424Z,57.97
2023-04-11T05:55:27.607Z,52.50
2023-04-11T05:57:56.267Z,54.08
2023-04-11T06:00:26.719Z,46.28
2023-04-11T06:02:55.453Z,46.83
2023-04-11T06:05:25.377Z,43.35
2023-04-11T06:07:53.736Z,43.40
2023-04-11T06:10:22.634Z,41.28
2023-04-11T06:12:50.985Z,40.65
2023-04-11T06:15:20.170Z,39.33
2023-04-11T06:17:50.089Z,39.25
2023-04-11T06:20:19.474Z,36.08
2023-04-11T06:22:51.298Z,38.38
2023-04-11T06:25:24.222Z,38.28
2023-04-11T06:27:52.624Z,36.08
2023-04-11T06:30:21.474Z,34.25
2023-04-11T06:32:50.241Z,36.40
2023-04-11T06:35:20.628Z,32.92
2023-04-11T06:37:49.088Z,38.55
2023-04-11T06:40:21.305Z,33.75
2023-04-11T06:42:49.734Z,34.67
2023-04-11T06:45:18.426Z,33.95
2023-04-11T06:47:46.807Z,32.90
2023-04-11T06:50:15.621Z,35.03
2023-04-11T06:52:43.822Z,34.72
2023-04-11T06:55:15.551Z,34.45
2023-04-11T06:57:44.292Z,31.20
2023-04-11T07:00:13.770Z,30.48
2023-04-11T07:02:42.348Z,32.55
2023-04-11T07:05:11.349Z,31.77
2023-04-11T07:07:40.050Z,26.00
2023-04-11T07:10:09.225Z,27.20
2023-04-11T07:12:37.437Z,25.85
2023-04-11T07:15:06.772Z,23.08
2023-04-11T07:17:35.385Z,21.98
2023-04-11T07:20:07.067Z,21.52
2023-04-11T07:22:36.875Z,22.67
2023-04-11T07:25:05.770Z,20.05
2023-04-11T07:27:36.529Z,18.80
2023-04-11T07:30:05.711Z,16.42
2023-04-11T07:32:33.928Z,23.17
2023-04-11T07:35:02.896Z,20.08
2023-04-11T07:37:31.093Z,17.27
2023-04-11T07:39:59.651Z,18.00
2023-04-11T07:42:28.110Z,16.77
2023-04-11T07:44:56.917Z,15.93
2023-04-11T07:47:25.168Z,16.35
2023-04-11T07:49:54.065Z,15.55
2023-04-11T07:52:22.306Z,15.40
2023-04-11T07:54:50.941Z,14.75
2023-04-11T07:57:19.229Z,13.73
2023-04-11T07:59:48.028Z,16.13
2023-04-11T08:02:16.481Z,12.57
2023-04-11T08:04:45.712Z,12.93
2023-04-11T08:07:14.350Z,15.10
2023-04-11T08:09:43.080Z,15.80
2023-04-11T08:12:11.780Z,12.10
2023-04-11T08:14:40.485Z,14.73
2023-04-11T08:17:17.643Z,12.23
2023-04-11T08:19:50.207Z,13.68
2023-04-11T08:22:18.463Z,13.95
2023-04-11T08:24:49.547Z,12.02
2023-04-11T08:27:17.762Z,12.20
2023-04-11T08:29:46.447Z,12.23
2023-04-11T08:32:15.088Z,12.10
2023-04-11T08:34:43.625Z,12.73
2023-04-11T08:37:12.578Z,9.85
2023-04-11T08:39:41.107Z,9.63
2023-04-11T08:42:24.963Z,9.68
2023-04-11T08:44:55.713Z,11.15
2023-04-11T08:47:24.745Z,10.10
2023-04-11T08:49:54.228Z,9.45
2023-04-11T08:52:25.118Z,12.25
2023-04-11T08:54:55.346Z,10.68
2023-04-11T08:57:33.136Z,12.90
2023-04-11T09:00:14.915Z,11.05
2023-04-11T09:02:57.855Z,9.90
2023-04-11T09:05:32.809Z,11.65
2023-04-11T09:08:04.534Z,14.10
2023-04-11T09:10:34.089Z,11.48
2023-04-11T09:13:19.419Z,10.88
2023-04-11T09:15:48.668Z,14.95
2023-04-11T09:18:45.021Z,13.18
2023-04-11T09:21:15.618Z,12.20
2023-04-11T09:23:44.361Z,12.80
2023-04-11T09:26:13.327Z,13.00
2023-04-11T09:28:54.315Z,8.75
2023-04-11T09:31:40.904Z,10.73
2023-04-11T09:34:09.676Z,10.65
2023-04-11T09:36:39.383Z,9.70
2023-04-11T09:39:19.476Z,9.88
2023-04-11T09:41:48.301Z,13.25
2023-04-11T09:44:49.076Z,14.10
2023-04-11T09:47:18.375Z,10.85
2023-04-11T09:49:47.343Z,12.00
2023-04-11T09:52:16.605Z,10.10
2023-04-11T09:54:45.621Z,18.70
2023-04-11T09:57:45.930Z,11.52
2023-04-11T10:00:29.310Z,11.98
2023-04-11T10:02:58.940Z,11.20
2023-04-11T10:05:30.538Z,9.18
2023-04-11T10:08:33.493Z,8.98
2023-04-11T10:11:08.582Z,10.40
2023-04-11T10:13:47.955Z,11.98
2023-04-11T10:16:18.725Z,10.23
2023-04-11T10:19:23.555Z,7.83
2023-04-11T10:21:52.759Z,8.30
2023-04-11T10:24:22.285Z,11.55
2023-04-11T10:26:56.096Z,10.02
2023-04-11T10:29:36.622Z,10.68
2023-04-11T10:32:11.157Z,10.43
2023-04-11T10:35:01.534Z,11.43
2023-04-11T10:37:37.640Z,10.63
2023-04-11T10:40:11.298Z,10.82
2023-04-11T10:42:44.841Z,10.60
2023-04-11T10:45:27.579Z,10.20
2023-04-11T10:47:59.310Z,10.73
2023-04-11T10:50:32.812Z,14.07
2023-04-11T10:53:06.805Z,10.10
2023-04-11T10:55:48.037Z,8.32
2023-04-11T10:58:22.353Z,9.27
2023-04-11T11:01:25.888Z,10.35
2023-04-11T11:04:05.078Z,8.75
2023-04-11T11:06:46.193Z,7.32
2023-04-11T11:09:22.406Z,9.32
2023-04-11T11:12:10.701Z,10.55
2023-04-11T11:14:42.136Z,9.90
2023-04-11T11:17:15.399Z,10.85
2023-04-11T11:19:46.756Z,9.88
2023-04-11T11:24:44.529Z,10.57
2023-04-11T11:27:24.697Z,9.13
2023-04-11T11:29:53.587Z,9.80
2023-04-11T11:32:33.116Z,9.25
2023-04-11T11:35:13.244Z,10.93
2023-04-11T11:37:44.200Z,8.55
2023-04-11T11:40:13.903Z,13.50
2023-04-11T11:42:42.768Z,8.68
2023-04-11T11:45:22.189Z,14.30
2023-04-11T11:47:51.038Z,11.43
2023-04-11T11:50:27.740Z,10.85
2023-04-11T11:53:13.028Z,8.88
2023-04-11T11:55:43.290Z,11.82
2023-04-11T11:58:12.897Z,11.80
2023-04-11T12:00:42.508Z,14.10
2023-04-11T12:03:12.801Z,13.13
2023-04-11T12:05:47.213Z,9.55
2023-04-11T12:08:16.859Z,11.63
2023-04-11T12:10:49.782Z,7.53
2023-04-11T12:13:21.363Z,10.30
2023-04-11T12:15:53.338Z,9.20
2023-04-11T12:18:23.553Z,14.88
2023-04-11T12:20:52.687Z,9.48
2023-04-11T12:23:23.804Z,7.57
2023-04-11T12:25:52.327Z,9.85
2023-04-11T12:28:21.652Z,8.10
2023-04-11T12:30:50.396Z,9.57
2023-04-11T12:33:21.248Z,9.88
2023-04-11T12:35:49.527Z,11.57
2023-04-11T12:38:22.815Z,10.80
2023-04-11T12:41:00.320Z,9.90
2023-04-11T12:43:37.826Z,20.20
2023-04-11T12:46:31.536Z,22.70
2023-04-11T12:49:00.909Z,7.03
2023-04-11T12:51:29.243Z,7.38
2023-04-11T12:53:57.791Z,8.85
2023-04-11T12:56:27.286Z,9.75
2023-04-11T12:58:56.358Z,9.27
2023-04-11T13:01:24.934Z,7.78
2023-04-11T13:04:19.114Z,7.78
2023-04-11T13:07:39.370Z,8.35
2023-04-11T13:10:08.502Z,8.00
2023-04-11T13:13:11.739Z,7.50
2023-04-11T13:15:47.016Z,16.25
2023-04-11T13:18:41.102Z,8.43
2023-04-11T13:21:10.040Z,7.28
2023-04-11T13:23:38.314Z,7.47
2023-04-11T13:26:16.450Z,8.63
2023-04-11T13:28:47.410Z,8.13
2023-04-11T13:31:41.840Z,16.77
2023-04-11T13:34:12.070Z,10.73
2023-04-11T13:36:40.973Z,12.70
2023-04-11T13:39:09.176Z,14.10
2023-04-11T13:41:37.755Z,12.43
2023-04-11T13:44:06.256Z,9.18
2023-04-11T13:46:34.817Z,11.00
2023-04-11T13:49:04.160Z,7.20
2023-04-11T13:51:33.792Z,8.50
2023-04-11T13:54:02.129Z,10.10
2023-04-11T13:56:56.790Z,10.70
2023-04-11T13:59:25.024Z,9.75
2023-04-11T14:01:53.930Z,11.70
2023-04-11T14:04:22.539Z,9.82
2023-04-11T14:06:53.973Z,12.60
2023-04-11T14:09:22.288Z,10.60
2023-04-11T14:11:51.400Z,10.98
2023-04-11T14:14:19.683Z,8.85
2023-04-11T14:16:48.559Z,9.88
2023-04-11T14:19:16.899Z,10.57
2023-04-11T14:21:45.925Z,13.40
2023-04-11T14:24:14.413Z,12.85
2023-04-11T14:26:43.205Z,10.68
2023-04-11T14:29:11.964Z,15.40
2023-04-11T14:32:10.316Z,11.25
2023-04-11T14:34:38.696Z,11.38
2023-04-11T14:37:07.336Z,12.10
2023-04-11T14:39:39.182Z,18.42
2023-04-11T14:42:09.466Z,16.08
2023-04-11T14:45:03.863Z,19.27
2023-04-11T14:47:33.330Z,21.02
2023-04-11T14:50:01.954Z,25.20
2023-04-11T14:52:31.565Z,21.48
2023-04-11T14:55:25.047Z,37.22
2023-04-11T14:57:55.657Z,23.20
2023-04-11T15:00:25.110Z,21.58
2023-04-11T15:02:56.122Z,28.35
2023-04-11T15:05:24.741Z,27.73
2023-04-11T15:10:59.557Z,25.15
2023-04-11T15:13:28.442Z,28.23
2023-04-11T15:16:01.628Z,28.38
2023-04-11T15:18:32.066Z,25.55
2023-04-11T15:21:03.352Z,30.05
2023-04-11T15:23:32.891Z,25.75
2023-04-11T15:26:04.041Z,29.55
2023-04-11T15:28:38.263Z,29.95
2023-04-11T15:31:09.219Z,27.23
2023-04-11T15:33:38.448Z,26.35
2023-04-11T15:36:07.611Z,25.25
2023-04-11T15:38:36.910Z,26.98
2023-04-11T15:41:05.892Z,18.48
2023-04-11T15:43:34.402Z,20.33
2023-04-11T15:46:06.854Z,21.13
2023-04-11T15:48:35.792Z,19.80
2023-04-11T15:51:11.299Z,21.38
2023-04-11T15:53:40.050Z,17.05
2023-04-11T15:56:09.629Z,15.52
2023-04-11T15:58:38.124Z,14.32
2023-04-11T16:01:21.142Z,14.15
2023-04-11T16:03:51.838Z,12.52
2023-04-11T16:06:20.538Z,14.95
2023-04-11T16:08:49.301Z,12.27
2023-04-11T16:11:17.553Z,14.77
2023-04-11T16:13:46.190Z,17.35
2023-04-11T16:16:14.740Z,16.42
2023-04-11T16:18:43.359Z,6.57
2023-04-11T16:21:13.851Z,9.02
2023-04-11T16:23:43.065Z,7.78
2023-04-11T16:26:11.870Z,5.35
2023-04-11T16:28:42.264Z,6.45
2023-04-11T16:31:11.195Z,7.55
2023-04-11T16:38:19.981Z,5.90
2023-04-11T16:40:48.218Z,4.20
2023-04-11T16:43:16.804Z,3.20
2023-04-11T16:45:45.106Z,4.60
2023-04-11T16:48:13.733Z,3.72
2023-04-11T16:50:41.955Z,3.80
2023-04-11T16:53:11.155Z,2.70
2023-04-11T16:55:39.368Z,2.63
2023-04-11T16:58:08.878Z,3.92
2023-04-11T17:00:38.496Z,6.00
2023-04-11T17:03:07.527Z,3.83
2023-04-11T17:05:38.247Z,4.53
2023-04-11T17:08:07.099Z,3.90
2023-04-11T17:10:35.396Z,3.25
2023-04-11T17:13:04.007Z,2.72
2023-04-11T17:15:32.753Z,2.60
2023-04-11T17:18:01.321Z,2.60
2023-04-11T17:20:29.708Z,3.60
2023-04-11T17:22:59.719Z,2.50
2023-04-11T17:25:30.460Z,3.08
2023-04-11T17:28:00.784Z,2.90
2023-04-11T17:30:30.421Z,1.80
2023-04-11T17:32:59.754Z,4.38
2023-04-11T17:35:29.283Z,5.75
2023-04-11T17:37:57.972Z,6.43
2023-04-11T17:40:26.207Z,4.53
2023-04-11T17:42:55.014Z,4.18
2023-04-11T17:45:23.841Z,3.30
2023-04-11T17:47:52.896Z,5.22
2023-04-11T17:50:21.770Z,5.63
2023-04-11T17:58:05.114Z,4.13
2023-04-11T18:00:57.064Z,4.13
2023-04-11T18:04:38.559Z,4.03
2023-04-11T18:07:16.781Z,5.22
2023-04-11T18:10:11.860Z,12.57
2023-04-11T18:17:13.635Z,5.30
2023-04-11T18:19:46.275Z,5.78
2023-04-11T18:29:57.829Z,6.55
2023-04-11T18:38:09.633Z,7.28
2023-04-11T18:44:51.033Z,5.80
2023-04-11T18:47:47.107Z,8.18
2023-04-11T18:53:41.864Z,7.60
2023-04-11T19:12:51.168Z,9.25
2023-04-11T20:14:40.286Z,10.40
2023-04-11T20:17:12.538Z,10.15
2023-04-11T20:19:58.787Z,9.60
2023-04-11T20:23:43.936Z,10.40
2023-04-11T20:26:59.278Z,13.30
2023-04-11T20:29:46.869Z,11.40
2023-04-11T20:36:08.854Z,12.77
2023-04-11T20:38:45.011Z,9.80
2023-04-11T20:44:42.417Z,9.82
2023-04-11T20:48:00.059Z,8.98
2023-04-11T20:56:11.440Z,12.80
2023-04-11T21:01:23.838Z,15.10
2023-04-11T21:03:57.722Z,10.65
2023-04-11T21:06:26.908Z,10.40
2023-04-11T21:08:57.215Z,12.00
2023-04-11T21:11:29.531Z,9.55
2023-04-11T21:13:58.981Z,10.25
2023-04-11T21:16:33.293Z,11.63
2023-04-11T21:19:49.624Z,12.52
2023-04-11T21:22:29.117Z,13.30
2023-04-11T21:25:11.133Z,14.95
2023-04-11T21:27:45.600Z,16.42
2023-04-11T21:30:21.441Z,13.27
2023-04-11T21:32:52.631Z,15.25
2023-04-11T21:35:22.685Z,15.50
2023-04-11T21:37:51.257Z,15.52
2023-04-11T21:40:31.774Z,14.70
2023-04-11T21:43:05.188Z,22.67
2023-04-11T21:45:44.863Z,18.30
2023-04-11T21:48:27.332Z,17.08
2023-04-11T21:51:08.311Z,17.60
2023-04-11T21:53:50.435Z,18.65
2023-04-11T21:56:21.894Z,17.83
2023-04-11T21:58:54.269Z,20.63
2023-04-11T22:04:04.287Z,19.23
2023-04-11T22:06:34.311Z,19.60
2023-04-11T22:09:05.029Z,15.40
2023-04-11T22:11:48.117Z,17.27
2023-04-11T22:14:48.885Z,14.35
2023-04-11T22:17:30.779Z,15.65
2023-04-11T22:20:07.814Z,12.05
2023-04-11T22:22:45.238Z,13.85
2023-04-11T22:27:55.852Z,17.70
2023-04-11T22:31:16.845Z,13.98
2023-04-11T22:33:51.377Z,13.48
2023-04-11T22:36:20.318Z,13.05
2023-04-11T22:38:52.361Z,14.23
2023-04-11T22:41:22.181Z,11.50
2023-04-11T22:43:51.150Z,13.65
2023-04-11T22:46:19.468Z,14.90
2023-04-11T22:48:48.215Z,15.25
2023-04-11T22:51:21.466Z,13.15
2023-04-11T22:53:51.400Z,15.15
2023-04-11T22:56:19.936Z,13.40
2023-04-11T22:58:49.318Z,15.88
2023-04-11T23:01:19.439Z,16.23
2023-04-11T23:03:48.281Z,14.48
2023-04-11T23:06:17.413Z,15.00
2023-04-11T23:08:46.880Z,14.50
2023-04-11T23:11:15.404Z,14.60
2023-04-11T23:13:45.390Z,16.08
2023-04-11T23:16:14.623Z,15.45
2023-04-11T23:18:48.636Z,15.80
2023-04-11T23:21:17.272Z,15.20
2023-04-11T23:23:47.329Z,17.70
2023-04-11T23:26:20.787Z,16.20
2023-04-11T23:28:50.332Z,17.25
2023-04-11T23:31:19.018Z,19.27
2023-04-11T23:33:50.329Z,19.65
2023-04-11T23:36:21.250Z,18.88
2023-04-11T23:38:50.350Z,19.95
2023-04-11T23:41:19.246Z,20.25
2023-04-11T23:43:48.110Z,17.85
2023-04-11T23:46:18.445Z,19.58
2023-04-11T23:48:47.506Z,18.40
2023-04-11T23:51:16.654Z,20.27
2023-04-11T23:53:46.447Z,18.52
2023-04-11T23:56:18.328Z,22.80
2023-04-11T23:58:47.153Z,20.95
